Terminal Aerodrome Forecast
Issued by NWS

Home | Current Version | Previous Version | Text Only | Print | Product List | Glossary On
Versions: 1 2 3 4 5 6 7 8 9 10 11 12 13 14 15 16 17 18 19 20 21 22 23 24 25 26 27
416
FTAK31 PANC 051736
TAFAIL
TAF
PAIL 051736Z 0518/0618 10010KT P6SM VCSH BKN040
      TEMPO 0518/0522 10010G18KT 6SM -SHRASN
     FM052200 10010G18KT P6SM VCSH BKN060
     FM061500 07008KT 5SM -SN OVC025=

USA.gov is the U.S. government's official web portal to all federal, state and local government web resources and services.